createdAt,value
2023-03-22T00:01:51.734Z,19.10
2023-03-22T00:04:24.242Z,19.10
2023-03-22T00:06:56.010Z,18.90
2023-03-22T00:09:28.044Z,19.20
2023-03-22T00:12:01.050Z,19.40
2023-03-22T00:14:32.664Z,19.40
2023-03-22T00:17:24.848Z,19.50
2023-03-22T00:19:56.472Z,19.60
2023-03-22T00:25:15.061Z,19.70
2023-03-22T00:27:47.161Z,19.80
2023-03-22T00:30:19.883Z,20.00
2023-03-22T00:32:52.965Z,19.80
2023-03-22T00:35:54.698Z,19.80
2023-03-22T00:38:41.229Z,20.50
2023-03-22T00:41:17.515Z,20.30
2023-03-22T00:43:49.869Z,20.50
2023-03-22T00:46:24.198Z,20.60
2023-03-22T00:49:16.238Z,20.60
2023-03-22T00:51:48.784Z,21.00
2023-03-22T00:54:21.542Z,21.00
2023-03-22T00:56:57.150Z,21.00
2023-03-22T00:59:32.321Z,21.40
2023-03-22T01:02:06.276Z,21.40
2023-03-22T01:04:39.482Z,21.40
2023-03-22T01:07:13.073Z,21.70
2023-03-22T01:09:45.868Z,21.80
2023-03-22T01:12:19.588Z,21.80
2023-03-22T01:15:02.533Z,22.10
2023-03-22T01:17:37.739Z,22.20
2023-03-22T01:20:22.897Z,22.10
2023-03-22T01:22:57.945Z,22.20
2023-03-22T01:25:29.610Z,22.00
2023-03-22T01:28:06.954Z,22.50
2023-03-22T01:30:40.815Z,22.50
2023-03-22T01:33:13.356Z,22.70
2023-03-22T01:36:05.810Z,22.80
2023-03-22T01:38:40.335Z,23.20
2023-03-22T01:41:13.643Z,23.40
2023-03-22T01:43:46.886Z,23.60
2023-03-22T01:46:19.056Z,23.60
2023-03-22T01:48:52.684Z,23.80
2023-03-22T01:51:30.940Z,23.90
2023-03-22T01:54:49.835Z,24.00
2023-03-22T01:57:41.156Z,24.10
2023-03-22T02:00:20.369Z,24.30
2023-03-22T02:03:12.731Z,24.50
2023-03-22T02:05:56.755Z,24.80
2023-03-22T02:08:59.812Z,25.00
2023-03-22T02:11:45.099Z,25.00
2023-03-22T02:14:38.335Z,25.20
2023-03-22T02:18:30.132Z,25.20
2023-03-22T02:21:16.101Z,24.90
2023-03-22T02:24:14.593Z,25.30
2023-03-22T02:27:15.418Z,25.30
2023-03-22T02:30:02.996Z,25.40
2023-03-22T02:33:03.964Z,25.40
2023-03-22T02:36:03.829Z,25.80
2023-03-22T02:39:07.089Z,25.80
2023-03-22T02:42:05.953Z,25.90
2023-03-22T02:44:54.711Z,25.90
2023-03-22T02:47:51.664Z,25.50
2023-03-22T02:50:45.573Z,25.80
2023-03-22T02:53:49.961Z,26.10
2023-03-22T02:56:24.757Z,26.40
2023-03-22T02:59:02.706Z,26.20
2023-03-22T03:01:51.123Z,25.90
2023-03-22T03:04:34.872Z,26.10
2023-03-22T03:07:11.301Z,26.10
2023-03-22T03:09:45.308Z,26.50
2023-03-22T03:12:22.637Z,26.90
2023-03-22T03:14:59.872Z,26.70
2023-03-22T03:17:42.057Z,26.40
2023-03-22T03:20:36.171Z,26.50
2023-03-22T03:23:46.072Z,27.00
2023-03-22T03:26:41.362Z,27.30
2023-03-22T03:29:32.536Z,27.00
2023-03-22T03:32:27.547Z,27.30
2023-03-22T03:35:03.964Z,27.60
2023-03-22T03:38:10.762Z,27.10
2023-03-22T03:40:52.958Z,26.90
2023-03-22T03:43:47.481Z,27.10
2023-03-22T03:46:22.754Z,27.50
2023-03-22T03:48:57.573Z,28.00
2023-03-22T03:51:58.199Z,28.30
2023-03-22T03:54:30.915Z,27.90
2023-03-22T03:57:04.135Z,28.00
2023-03-22T03:59:38.465Z,28.30
2023-03-22T04:02:18.669Z,28.00
2023-03-22T04:04:53.858Z,27.50
2023-03-22T04:07:33.282Z,27.60
2023-03-22T04:10:25.168Z,28.10
2023-03-22T04:17:22.386Z,28.40
2023-03-22T04:19:58.189Z,29.00
2023-03-22T04:22:30.812Z,29.20
2023-03-22T04:25:06.679Z,29.40
2023-03-22T04:27:41.470Z,29.30
2023-03-22T04:30:39.134Z,29.20
2023-03-22T04:33:40.839Z,29.30
2023-03-22T04:36:23.229Z,29.50
2023-03-22T04:39:19.239Z,29.80
2023-03-22T04:42:00.629Z,29.90
2023-03-22T04:44:35.429Z,30.10
2023-03-22T04:47:15.529Z,30.50
2023-03-22T04:50:09.070Z,30.40
2023-03-22T04:53:15.573Z,29.70
2023-03-22T04:55:48.724Z,28.90
2023-03-22T04:58:23.898Z,28.60
2023-03-22T05:00:58.543Z,29.30
2023-03-22T05:04:15.900Z,29.50
2023-03-22T05:06:49.416Z,29.50
2023-03-22T05:09:35.799Z,29.10
2023-03-22T05:12:28.789Z,30.10
2023-03-22T05:15:29.894Z,30.30
2023-03-22T05:18:31.519Z,30.10
2023-03-22T05:21:05.632Z,30.80
2023-03-22T05:23:42.077Z,30.70
2023-03-22T05:26:25.890Z,31.00
2023-03-22T05:29:00.865Z,30.80
2023-03-22T05:32:00.681Z,30.70
2023-03-22T05:34:37.147Z,31.20
2023-03-22T05:37:32.149Z,31.50
2023-03-22T05:40:06.946Z,31.50
2023-03-22T05:42:51.708Z,31.40
2023-03-22T05:45:29.110Z,31.60
2023-03-22T05:48:28.805Z,31.80
2023-03-22T05:51:02.362Z,31.70
2023-03-22T05:53:41.391Z,31.30
2023-03-22T05:56:37.036Z,31.20
2023-03-22T05:59:32.736Z,31.70
2023-03-22T06:02:07.419Z,31.80
2023-03-22T06:04:44.860Z,32.00
2023-03-22T06:07:40.494Z,31.50
2023-03-22T06:10:23.039Z,32.10
2023-03-22T06:12:55.547Z,32.00
2023-03-22T06:16:21.733Z,32.10
2023-03-22T06:18:53.455Z,32.50
2023-03-22T06:21:26.848Z,32.60
2023-03-22T06:23:58.765Z,32.60
2023-03-22T06:26:43.204Z,32.60
2023-03-22T06:29:16.713Z,33.00
2023-03-22T06:31:49.570Z,32.60
2023-03-22T06:34:23.343Z,32.40
2023-03-22T06:37:19.833Z,32.10
2023-03-22T06:39:53.932Z,32.20
2023-03-22T06:42:29.442Z,32.10
2023-03-22T06:45:12.375Z,32.00
2023-03-22T06:47:47.656Z,32.20
2023-03-22T06:50:44.526Z,31.40
2023-03-22T06:53:23.529Z,31.60
2023-03-22T06:56:07.607Z,32.30
2023-03-22T06:58:53.590Z,32.40
2023-03-22T07:01:28.917Z,32.70
2023-03-22T07:04:01.311Z,32.70
2023-03-22T07:06:35.684Z,32.70
2023-03-22T07:09:12.183Z,32.60
2023-03-22T07:11:42.785Z,32.10
2023-03-22T07:14:16.538Z,32.80
2023-03-22T07:17:13.203Z,32.80
2023-03-22T07:19:45.117Z,32.90
2023-03-22T07:22:40.150Z,33.20
2023-03-22T07:25:34.571Z,33.20
2023-03-22T07:28:26.329Z,33.10
2023-03-22T07:31:15.484Z,32.90
2023-03-22T07:34:21.685Z,33.00
2023-03-22T07:37:10.143Z,33.00
2023-03-22T07:39:45.279Z,32.90
2023-03-22T07:42:20.087Z,32.70
2023-03-22T07:45:13.906Z,32.90
2023-03-22T07:47:53.234Z,32.70
2023-03-22T07:50:46.725Z,32.90
2023-03-22T07:53:19.364Z,33.10
2023-03-22T07:55:51.213Z,33.00
2023-03-22T07:58:22.645Z,32.10
2023-03-22T08:00:56.039Z,32.20
2023-03-22T08:04:06.264Z,32.50
2023-03-22T08:07:00.292Z,32.80
2023-03-22T08:09:33.065Z,32.80
2023-03-22T08:12:06.167Z,33.00
2023-03-22T08:14:40.137Z,32.90
2023-03-22T08:17:20.256Z,33.00
2023-03-22T08:19:51.605Z,33.10
2023-03-22T08:22:31.531Z,33.00
2023-03-22T08:25:28.251Z,33.10
2023-03-22T08:28:20.892Z,32.80
2023-03-22T08:30:54.294Z,32.90
2023-03-22T08:33:29.412Z,33.00
2023-03-22T08:36:37.555Z,32.80
2023-03-22T08:39:11.396Z,32.90
2023-03-22T08:41:53.020Z,33.00
2023-03-22T08:44:31.191Z,32.60
2023-03-22T08:47:26.072Z,32.40
2023-03-22T08:50:02.348Z,32.50
2023-03-22T08:53:01.436Z,32.10
2023-03-22T08:56:18.397Z,31.70
2023-03-22T08:59:01.691Z,31.70
2023-03-22T09:01:48.364Z,31.80
2023-03-22T09:04:22.234Z,31.90
2023-03-22T09:06:55.931Z,31.80
2023-03-22T09:09:28.221Z,31.80
2023-03-22T09:12:02.470Z,31.60
2023-03-22T09:14:37.297Z,31.70
2023-03-22T09:17:08.898Z,31.70
2023-03-22T09:22:57.429Z,30.90
2023-03-22T09:25:28.681Z,30.80
2023-03-22T09:28:00.574Z,30.50
2023-03-22T09:30:35.188Z,30.50
2023-03-22T09:33:28.028Z,30.60
2023-03-22T09:36:01.770Z,30.40
2023-03-22T09:38:43.027Z,30.30
2023-03-22T09:41:32.633Z,30.30
2023-03-22T09:44:18.403Z,30.10
2023-03-22T09:46:58.089Z,30.00
2023-03-22T09:49:52.997Z,30.00
2023-03-22T09:52:41.980Z,29.70
2023-03-22T09:56:07.054Z,29.70
2023-03-22T09:59:17.851Z,29.90
2023-03-22T10:06:21.901Z,29.70
2023-03-22T10:09:03.145Z,29.30
2023-03-22T10:11:49.622Z,29.20
2023-03-22T10:14:34.723Z,29.10
2023-03-22T10:17:16.011Z,28.90
2023-03-22T10:20:12.723Z,28.40
2023-03-22T10:22:52.839Z,28.50
2023-03-22T10:25:38.896Z,28.30
2023-03-22T10:28:47.921Z,28.10
2023-03-22T10:31:23.051Z,28.00
2023-03-22T10:34:00.020Z,27.90
2023-03-22T10:36:37.346Z,27.90
2023-03-22T10:39:39.854Z,27.70
2023-03-22T10:42:21.657Z,27.50
2023-03-22T10:45:05.152Z,27.50
2023-03-22T10:47:44.835Z,27.40
2023-03-22T10:50:45.683Z,27.20
2023-03-22T10:53:42.394Z,27.10
2023-03-22T10:56:37.963Z,27.00
2023-03-22T10:59:12.541Z,26.90
2023-03-22T11:01:50.241Z,26.90
2023-03-22T11:04:43.426Z,26.80
2023-03-22T11:07:40.760Z,26.60
2023-03-22T11:10:23.401Z,26.60
2023-03-22T11:13:17.024Z,26.50
2023-03-22T11:16:22.150Z,26.30
2023-03-22T11:19:01.395Z,26.20
2023-03-22T11:21:56.253Z,26.10
2023-03-22T11:24:31.293Z,26.10
2023-03-22T11:27:17.517Z,26.00
2023-03-22T11:29:56.716Z,25.90
2023-03-22T11:32:40.208Z,25.90
2023-03-22T11:35:30.252Z,25.90
2023-03-22T11:38:04.849Z,25.80
2023-03-22T11:40:39.271Z,25.80
2023-03-22T11:43:25.669Z,25.70
2023-03-22T11:46:26.055Z,25.60
2023-03-22T11:49:09.381Z,25.50
2023-03-22T11:52:10.526Z,25.50
2023-03-22T11:54:48.316Z,25.40
2023-03-22T11:57:33.757Z,25.40
2023-03-22T12:00:54.492Z,25.30
2023-03-22T12:03:32.375Z,25.20
2023-03-22T12:06:35.979Z,25.10
2023-03-22T12:09:41.054Z,25.10
2023-03-22T12:12:39.156Z,25.20
2023-03-22T12:16:00.635Z,25.10
2023-03-22T12:22:01.285Z,25.20
2023-03-22T12:24:37.588Z,25.10
2023-03-22T12:28:00.038Z,25.10
2023-03-22T12:31:05.266Z,25.20
2023-03-22T12:34:01.817Z,25.20
2023-03-22T12:37:03.871Z,25.20
2023-03-22T12:40:53.604Z,25.20
2023-03-22T12:43:52.423Z,25.40
2023-03-22T12:46:33.709Z,25.50
2023-03-22T12:49:38.780Z,25.70
2023-03-22T12:53:19.097Z,26.00
2023-03-22T12:56:13.116Z,26.20
2023-03-22T12:59:14.261Z,26.00
2023-03-22T13:02:24.418Z,26.10
2023-03-22T13:05:06.723Z,26.00
2023-03-22T13:07:53.588Z,26.00
2023-03-22T13:10:57.410Z,25.80
2023-03-22T13:17:03.125Z,25.60
2023-03-22T13:19:56.867Z,25.50
2023-03-22T13:23:12.127Z,25.40
2023-03-22T13:26:13.211Z,25.40
2023-03-22T13:28:58.643Z,25.40
2023-03-22T13:32:04.348Z,25.30
2023-03-22T13:34:53.577Z,25.20
2023-03-22T13:37:53.693Z,25.10
2023-03-22T13:41:06.445Z,25.00
2023-03-22T13:43:57.113Z,24.80
2023-03-22T13:47:19.079Z,24.60
2023-03-22T13:50:01.132Z,24.50
2023-03-22T13:52:40.833Z,24.30
2023-03-22T13:55:56.058Z,24.10
2023-03-22T13:58:38.570Z,24.00
2023-03-22T14:01:37.152Z,23.90
2023-03-22T14:04:29.778Z,23.70
2023-03-22T14:07:51.331Z,23.70
2023-03-22T14:10:48.871Z,23.50
2023-03-22T14:13:46.636Z,23.50
2023-03-22T14:16:51.248Z,23.30
2023-03-22T14:19:34.289Z,23.20
